createdAt,value
2023-05-25T00:01:20.571Z,9.85
2023-05-25T00:03:49.661Z,11.75
2023-05-25T00:06:26.234Z,7.60
2023-05-25T00:08:57.779Z,9.77
2023-05-25T00:11:26.840Z,10.45
2023-05-25T00:13:56.398Z,14.43
2023-05-25T00:16:25.574Z,21.02
2023-05-25T00:18:57.744Z,7.63
2023-05-25T00:21:39.504Z,10.70
2023-05-25T00:24:11.657Z,6.53
2023-05-25T00:26:40.069Z,10.90
2023-05-25T00:29:08.775Z,8.68
2023-05-25T00:31:39.388Z,6.70
2023-05-25T00:34:10.470Z,8.00
2023-05-25T00:36:39.129Z,11.07
2023-05-25T00:39:09.440Z,11.70
2023-05-25T00:41:41.936Z,7.30
2023-05-25T00:44:10.792Z,9.52
2023-05-25T00:46:40.646Z,9.95
2023-05-25T00:49:10.333Z,10.15
2023-05-25T00:51:39.525Z,11.32
2023-05-25T00:54:10.121Z,8.05
2023-05-25T00:56:41.591Z,10.75
2023-05-25T00:59:13.516Z,8.50
2023-05-25T01:01:44.970Z,12.43
2023-05-25T01:04:16.628Z,10.55
2023-05-25T01:06:50.255Z,10.93
2023-05-25T01:09:22.557Z,11.77
2023-05-25T01:11:53.683Z,11.50
2023-05-25T01:14:27.552Z,10.35
2023-05-25T01:16:59.160Z,8.32
2023-05-25T01:19:27.509Z,9.98
2023-05-25T01:22:05.232Z,14.13
2023-05-25T01:24:41.155Z,14.48
2023-05-25T01:27:18.542Z,10.77
2023-05-25T01:29:48.367Z,11.65
2023-05-25T01:32:21.251Z,11.45
2023-05-25T01:34:51.860Z,14.40
2023-05-25T01:37:24.624Z,12.63
2023-05-25T01:39:53.350Z,9.40
2023-05-25T01:42:22.411Z,13.15
2023-05-25T01:44:51.283Z,12.02
2023-05-25T01:47:26.392Z,15.88
2023-05-25T01:52:38.056Z,12.18
2023-05-25T01:55:10.302Z,14.35
2023-05-25T01:57:43.081Z,11.02
2023-05-25T02:00:13.413Z,13.57
2023-05-25T02:02:43.706Z,14.20
2023-05-25T02:05:13.821Z,15.23
2023-05-25T02:07:44.110Z,16.98
2023-05-25T02:10:12.824Z,14.48
2023-05-25T02:12:43.049Z,12.35
2023-05-25T02:15:12.495Z,16.45
2023-05-25T02:17:41.690Z,16.83
2023-05-25T02:20:12.761Z,15.70
2023-05-25T02:22:41.562Z,16.15
2023-05-25T02:25:14.047Z,17.02
2023-05-25T02:27:42.195Z,12.68
2023-05-25T02:30:11.875Z,16.88
2023-05-25T02:32:41.205Z,17.65
2023-05-25T02:35:11.004Z,11.15
2023-05-25T02:37:40.629Z,19.00
2023-05-25T02:40:15.186Z,19.52
2023-05-25T02:42:44.419Z,11.93
2023-05-25T02:45:14.006Z,15.20
2023-05-25T02:47:43.533Z,14.80
2023-05-25T02:50:14.604Z,15.63
2023-05-25T02:52:47.431Z,18.05
2023-05-25T02:55:19.014Z,20.73
2023-05-25T02:57:47.580Z,23.77
2023-05-25T03:00:32.060Z,17.60
2023-05-25T03:03:01.106Z,15.57
2023-05-25T03:05:30.308Z,21.10
2023-05-25T03:07:59.576Z,17.38
2023-05-25T03:10:29.723Z,20.00
2023-05-25T03:12:59.847Z,16.42
2023-05-25T03:15:28.736Z,15.77
2023-05-25T03:18:01.473Z,21.30
2023-05-25T03:20:34.819Z,22.83
2023-05-25T03:23:04.504Z,22.00
2023-05-25T03:25:37.399Z,15.27
2023-05-25T03:28:10.742Z,18.58
2023-05-25T03:30:40.913Z,19.42
2023-05-25T03:33:11.170Z,19.77
2023-05-25T03:35:46.338Z,16.98
2023-05-25T03:38:15.231Z,23.67
2023-05-25T03:40:49.024Z,24.77
2023-05-25T03:43:18.855Z,16.20
2023-05-25T03:45:49.618Z,18.08
2023-05-25T03:48:18.827Z,20.05
2023-05-25T03:50:48.015Z,20.52
2023-05-25T03:53:20.533Z,22.67
2023-05-25T03:55:52.611Z,25.92
2023-05-25T03:58:21.545Z,24.33
2023-05-25T04:00:51.859Z,28.20
2023-05-25T04:03:22.088Z,16.23
2023-05-25T04:05:56.841Z,19.73
2023-05-25T04:08:26.434Z,21.13
2023-05-25T04:10:56.524Z,19.70
2023-05-25T04:13:26.684Z,26.13
2023-05-25T04:15:56.487Z,21.25
2023-05-25T04:18:29.663Z,19.83
2023-05-25T04:20:59.334Z,20.30
2023-05-25T04:23:29.092Z,16.30
2023-05-25T04:26:00.625Z,17.05
2023-05-25T04:28:29.640Z,14.73
2023-05-25T04:31:05.588Z,18.15
2023-05-25T04:33:42.247Z,16.90
2023-05-25T04:36:32.800Z,15.77
2023-05-25T04:39:04.022Z,11.95
2023-05-25T04:41:39.589Z,16.95
2023-05-25T04:44:13.247Z,19.08
2023-05-25T04:46:47.682Z,10.95
2023-05-25T04:49:22.658Z,18.35
2023-05-25T04:51:51.609Z,19.00
2023-05-25T04:54:20.372Z,19.45
2023-05-25T04:56:50.597Z,12.48
2023-05-25T04:59:20.397Z,11.93
2023-05-25T05:01:49.496Z,14.70
2023-05-25T05:04:19.199Z,19.10
2023-05-25T05:06:52.533Z,11.98
2023-05-25T05:09:27.148Z,15.65
2023-05-25T05:11:59.853Z,10.45
2023-05-25T05:14:30.760Z,12.57
2023-05-25T05:17:00.015Z,16.42
2023-05-25T05:19:29.783Z,11.27
2023-05-25T05:21:59.285Z,10.35
2023-05-25T05:24:28.854Z,12.70
2023-05-25T05:26:59.250Z,16.63
2023-05-25T05:29:47.809Z,13.27
2023-05-25T05:32:16.846Z,12.20
2023-05-25T05:34:46.210Z,15.32
2023-05-25T05:37:33.463Z,11.75
2023-05-25T05:40:02.525Z,13.13
2023-05-25T05:42:33.187Z,11.93
2023-05-25T05:45:13.588Z,16.02
2023-05-25T05:47:42.196Z,11.20
2023-05-25T05:50:12.151Z,17.70
2023-05-25T05:52:42.607Z,14.82
2023-05-25T05:55:12.680Z,9.80
2023-05-25T05:57:43.989Z,13.13
2023-05-25T06:00:17.520Z,10.68
2023-05-25T06:02:47.374Z,13.63
2023-05-25T06:05:21.885Z,11.93
2023-05-25T06:07:50.986Z,10.52
2023-05-25T06:10:22.487Z,9.10
2023-05-25T06:12:51.374Z,11.43
2023-05-25T06:15:22.872Z,15.38
2023-05-25T06:17:56.136Z,9.80
2023-05-25T06:20:24.979Z,13.32
2023-05-25T06:22:53.803Z,7.55
2023-05-25T06:25:22.824Z,10.63
2023-05-25T06:27:52.002Z,8.55
2023-05-25T06:30:22.987Z,10.38
2023-05-25T06:32:53.119Z,12.30
2023-05-25T06:35:22.392Z,8.80
2023-05-25T06:37:52.872Z,8.80
2023-05-25T06:40:24.170Z,9.43
2023-05-25T06:42:53.104Z,9.88
2023-05-25T06:45:41.359Z,8.70
2023-05-25T06:48:10.566Z,10.70
2023-05-25T06:50:39.879Z,11.50
2023-05-25T06:53:08.593Z,8.95
2023-05-25T06:55:40.457Z,14.63
2023-05-25T06:58:09.322Z,8.02
2023-05-25T07:00:38.621Z,11.90
2023-05-25T07:03:09.290Z,17.55
2023-05-25T07:05:39.491Z,11.13
2023-05-25T07:08:08.439Z,8.85
2023-05-25T07:10:37.053Z,10.30
2023-05-25T07:13:07.112Z,11.93
2023-05-25T07:15:35.281Z,9.90
2023-05-25T07:18:04.060Z,6.85
2023-05-25T07:20:36.756Z,11.35
2023-05-25T07:23:05.139Z,16.88
2023-05-25T07:25:33.793Z,11.68
2023-05-25T07:28:02.239Z,12.90
2023-05-25T07:30:31.290Z,10.02
2023-05-25T07:33:00.502Z,9.52
2023-05-25T07:35:29.355Z,12.05
2023-05-25T07:38:00.148Z,10.18
2023-05-25T07:40:29.495Z,10.70
2023-05-25T07:42:58.546Z,8.90
2023-05-25T07:45:26.885Z,9.85
2023-05-25T07:47:55.270Z,7.47
2023-05-25T07:50:24.270Z,10.60
2023-05-25T07:52:52.791Z,11.30
2023-05-25T07:55:22.849Z,8.88
2023-05-25T07:57:51.604Z,8.70
2023-05-25T08:00:21.170Z,8.13
2023-05-25T08:02:50.716Z,9.25
2023-05-25T08:05:19.492Z,8.80
2023-05-25T08:07:47.810Z,9.82
2023-05-25T08:10:16.421Z,9.68
2023-05-25T08:12:49.492Z,9.60
2023-05-25T08:15:19.449Z,15.68
2023-05-25T08:17:49.661Z,8.13
2023-05-25T08:20:19.230Z,7.53
2023-05-25T08:22:47.989Z,13.90
2023-05-25T08:25:16.663Z,7.70
2023-05-25T08:27:47.113Z,8.50
2023-05-25T08:30:15.840Z,9.27
2023-05-25T08:32:45.214Z,9.48
2023-05-25T08:35:22.450Z,8.27
2023-05-25T08:37:51.775Z,8.10
2023-05-25T08:40:26.456Z,10.50
2023-05-25T08:42:56.723Z,9.05
2023-05-25T08:45:35.287Z,8.05
2023-05-25T08:50:53.977Z,6.07
2023-05-25T08:53:23.814Z,8.68
2023-05-25T08:55:54.477Z,6.35
2023-05-25T08:58:32.656Z,6.55
2023-05-25T09:01:07.673Z,14.77
2023-05-25T09:03:37.184Z,7.93
2023-05-25T09:06:06.254Z,6.93
2023-05-25T09:08:35.037Z,7.45
2023-05-25T09:11:04.681Z,9.07
2023-05-25T09:13:35.322Z,6.82
2023-05-25T09:16:05.667Z,8.30
2023-05-25T09:18:34.590Z,5.43
2023-05-25T09:21:04.593Z,6.40
2023-05-25T09:23:34.329Z,9.38
2023-05-25T09:26:03.236Z,5.13
2023-05-25T09:28:31.986Z,8.35
2023-05-25T09:31:02.621Z,5.90
2023-05-25T09:33:32.780Z,5.00
2023-05-25T09:36:02.931Z,5.88
2023-05-25T09:38:32.706Z,6.78
2023-05-25T09:41:02.452Z,6.78
2023-05-25T09:43:41.760Z,7.18
2023-05-25T09:46:15.469Z,7.65
2023-05-25T09:48:45.808Z,6.63
2023-05-25T09:51:15.820Z,4.50
2023-05-25T09:53:46.076Z,8.20
2023-05-25T09:56:19.207Z,6.63
2023-05-25T09:58:48.533Z,7.93
2023-05-25T10:01:18.908Z,8.55
2023-05-25T10:03:59.834Z,5.43
2023-05-25T10:06:34.894Z,4.72
2023-05-25T10:09:05.259Z,7.32
2023-05-25T10:11:37.400Z,5.22
2023-05-25T10:14:09.170Z,4.82
2023-05-25T10:16:43.530Z,4.65
2023-05-25T10:19:18.445Z,4.70
2023-05-25T10:21:53.020Z,5.55
2023-05-25T10:24:26.179Z,9.00
2023-05-25T10:27:07.767Z,6.60
2023-05-25T10:29:45.384Z,6.32
2023-05-25T10:32:17.717Z,7.18
2023-05-25T10:34:46.717Z,4.88
2023-05-25T10:37:17.053Z,5.72
2023-05-25T10:39:47.585Z,7.57
2023-05-25T10:42:16.246Z,5.63
2023-05-25T10:44:46.115Z,5.55
2023-05-25T10:47:20.482Z,6.45
2023-05-25T10:49:54.926Z,4.20
2023-05-25T10:52:29.126Z,6.30
2023-05-25T10:55:04.965Z,8.75
2023-05-25T10:57:34.552Z,4.88
2023-05-25T11:00:07.190Z,5.88
2023-05-25T11:02:56.104Z,5.78
2023-05-25T11:05:51.685Z,6.47
2023-05-25T11:08:47.107Z,5.30
2023-05-25T11:11:16.291Z,7.03
2023-05-25T11:13:49.655Z,5.85
2023-05-25T11:16:37.902Z,6.63
2023-05-25T11:19:17.088Z,7.50
2023-05-25T11:21:52.684Z,5.93
2023-05-25T11:24:23.204Z,5.70
2023-05-25T11:27:00.012Z,6.03
2023-05-25T11:29:33.088Z,3.85
2023-05-25T11:32:02.856Z,5.43
2023-05-25T11:34:34.000Z,5.70
2023-05-25T11:37:04.111Z,5.82
2023-05-25T11:39:33.697Z,5.90
2023-05-25T11:42:09.752Z,8.05
2023-05-25T11:44:48.358Z,7.05
2023-05-25T11:47:19.077Z,6.60
2023-05-25T11:49:49.955Z,5.28
2023-05-25T11:52:19.852Z,4.53
2023-05-25T11:54:49.350Z,4.72
2023-05-25T11:57:23.287Z,4.78
2023-05-25T12:02:22.414Z,4.50
2023-05-25T12:05:01.841Z,7.63
2023-05-25T12:07:32.837Z,4.00
2023-05-25T12:10:08.231Z,6.45
2023-05-25T12:12:42.818Z,5.40
2023-05-25T12:15:13.290Z,3.33
2023-05-25T12:17:47.113Z,2.80
2023-05-25T12:20:18.600Z,4.15
2023-05-25T12:22:51.386Z,3.58
2023-05-25T12:25:24.514Z,5.55
2023-05-25T12:28:11.524Z,6.03
2023-05-25T12:30:41.852Z,6.30
2023-05-25T12:33:14.441Z,4.50
2023-05-25T12:35:49.794Z,8.77
2023-05-25T12:38:21.668Z,5.43
2023-05-25T12:41:06.528Z,3.33
2023-05-25T12:43:39.885Z,5.53
2023-05-25T12:46:10.919Z,11.43
2023-05-25T12:48:39.690Z,4.43
2023-05-25T12:51:10.560Z,5.22
2023-05-25T12:53:49.583Z,3.92
2023-05-25T12:56:19.028Z,4.82
2023-05-25T12:58:48.846Z,4.88
2023-05-25T13:01:18.785Z,3.33
2023-05-25T13:03:47.304Z,4.28
2023-05-25T13:06:19.671Z,6.57
2023-05-25T13:08:49.265Z,5.32
2023-05-25T13:11:17.822Z,5.55
2023-05-25T13:13:46.303Z,7.20
2023-05-25T13:16:15.005Z,4.10
2023-05-25T13:18:44.144Z,6.60
2023-05-25T13:21:12.522Z,10.35
2023-05-25T13:23:43.416Z,5.22
2023-05-25T13:26:12.520Z,3.90
2023-05-25T13:28:40.955Z,6.28
2023-05-25T13:31:12.368Z,8.13
2023-05-25T13:33:42.451Z,3.55
2023-05-25T13:36:10.986Z,6.15
2023-05-25T13:38:40.606Z,4.88
2023-05-25T13:41:11.529Z,3.83
2023-05-25T13:43:42.545Z,5.00
2023-05-25T13:46:21.898Z,5.30
2023-05-25T13:49:00.256Z,6.10
2023-05-25T13:51:28.667Z,8.75
2023-05-25T13:53:58.640Z,5.78
2023-05-25T13:56:29.569Z,4.15
2023-05-25T13:58:58.342Z,6.22
2023-05-25T14:01:29.165Z,10.55
2023-05-25T14:04:01.072Z,4.50
2023-05-25T14:06:30.715Z,5.05
2023-05-25T14:09:01.872Z,4.78
2023-05-25T14:11:32.099Z,6.47
2023-05-25T14:14:01.105Z,4.72
2023-05-25T14:16:29.639Z,5.95
2023-05-25T14:19:01.148Z,5.32
2023-05-25T14:21:31.021Z,7.90
2023-05-25T14:24:00.133Z,6.85
2023-05-25T14:26:28.830Z,7.18
2023-05-25T14:28:58.961Z,6.15
2023-05-25T14:31:28.088Z,4.80
2023-05-25T14:33:56.532Z,5.55
2023-05-25T14:36:25.269Z,4.55
2023-05-25T14:38:54.090Z,8.98
2023-05-25T14:41:23.108Z,6.15
2023-05-25T14:43:52.098Z,7.25
2023-05-25T14:46:22.983Z,6.68
2023-05-25T14:48:51.779Z,9.07
2023-05-25T14:51:20.360Z,5.95
2023-05-25T14:53:49.042Z,9.13
2023-05-25T14:56:20.173Z,11.88
2023-05-25T14:58:51.071Z,7.25
2023-05-25T15:01:24.400Z,7.32
2023-05-25T15:03:55.525Z,9.85
2023-05-25T15:06:27.867Z,5.30
2023-05-25T15:08:56.929Z,5.82
2023-05-25T15:11:27.129Z,9.23
2023-05-25T15:13:57.874Z,5.47
2023-05-25T15:16:26.591Z,6.88
2023-05-25T15:18:56.658Z,6.15
2023-05-25T15:21:25.650Z,6.80
2023-05-25T15:23:54.050Z,7.78
2023-05-25T15:26:23.728Z,4.28
2023-05-25T15:28:53.724Z,8.25
2023-05-25T15:31:23.998Z,8.05
2023-05-25T15:33:58.653Z,8.23
2023-05-25T15:36:28.989Z,12.48
2023-05-25T15:38:57.457Z,6.47
2023-05-25T15:41:27.898Z,8.75
2023-05-25T15:44:01.294Z,10.25
2023-05-25T15:46:32.742Z,7.37
2023-05-25T15:49:02.325Z,9.30
2023-05-25T15:51:33.072Z,7.55
2023-05-25T15:54:04.137Z,10.68
2023-05-25T15:56:33.295Z,5.80
2023-05-25T15:59:04.329Z,8.95
2023-05-25T16:01:34.446Z,7.70
2023-05-25T16:04:06.288Z,12.73
2023-05-25T16:06:36.387Z,7.93
2023-05-25T16:09:05.639Z,7.53
2023-05-25T16:11:38.543Z,7.82
2023-05-25T16:14:06.772Z,8.13
2023-05-25T16:16:35.892Z,6.40
2023-05-25T16:19:04.942Z,11.00
2023-05-25T16:21:38.010Z,10.52
2023-05-25T16:24:09.279Z,7.68
2023-05-25T16:26:37.978Z,9.57
2023-05-25T16:29:07.452Z,7.88
2023-05-25T16:31:38.172Z,11.57
2023-05-25T16:34:08.644Z,8.05
2023-05-25T16:36:37.978Z,10.07
2023-05-25T16:39:08.460Z,7.43
2023-05-25T16:41:39.547Z,7.85
2023-05-25T16:44:11.072Z,7.40
2023-05-25T16:46:45.824Z,8.18
2023-05-25T16:49:14.690Z,8.02
2023-05-25T16:51:57.026Z,8.68
2023-05-25T16:54:27.428Z,9.13
2023-05-25T16:56:56.384Z,10.13
2023-05-25T16:59:24.757Z,7.90
2023-05-25T17:01:55.078Z,9.07
2023-05-25T17:04:23.719Z,7.95
2023-05-25T17:06:52.648Z,8.13
2023-05-25T17:09:21.314Z,10.05
2023-05-25T17:11:53.945Z,11.05
2023-05-25T17:14:22.800Z,9.13
2023-05-25T17:16:52.195Z,8.75
2023-05-25T17:19:21.909Z,9.75
2023-05-25T17:21:50.859Z,7.97
2023-05-25T17:24:19.277Z,9.85
2023-05-25T17:26:50.455Z,12.45
2023-05-25T17:29:20.603Z,8.68
2023-05-25T17:31:49.820Z,9.73
2023-05-25T17:34:18.396Z,10.98
2023-05-25T17:36:48.290Z,9.52
2023-05-25T17:39:16.345Z,9.25
2023-05-25T17:41:45.588Z,8.77
2023-05-25T17:44:14.602Z,9.95
2023-05-25T17:46:44.984Z,9.43
2023-05-25T17:49:14.449Z,7.30
2023-05-25T17:51:44.490Z,9.40
2023-05-25T17:54:18.630Z,7.72
2023-05-25T17:56:47.844Z,7.43
2023-05-25T17:59:17.850Z,8.23
2023-05-25T18:01:48.606Z,13.93
2023-05-25T18:04:19.709Z,13.43
2023-05-25T18:06:50.428Z,7.75
2023-05-25T18:09:18.881Z,7.90
2023-05-25T18:11:48.974Z,10.30
2023-05-25T18:14:20.377Z,9.20
2023-05-25T18:16:50.199Z,10.48
2023-05-25T18:19:24.116Z,10.18
2023-05-25T18:21:54.192Z,8.97
2023-05-25T18:24:23.928Z,12.48
2023-05-25T18:26:55.939Z,9.55
2023-05-25T18:29:24.693Z,8.10
2023-05-25T18:31:55.327Z,8.98
2023-05-25T18:34:26.857Z,12.65
2023-05-25T18:36:56.555Z,9.50
2023-05-25T18:39:25.877Z,9.95
2023-05-25T18:41:58.441Z,10.25
2023-05-25T18:44:29.255Z,8.77
2023-05-25T18:47:00.329Z,11.85
2023-05-25T18:49:32.936Z,7.28
2023-05-25T18:52:02.333Z,10.48
2023-05-25T18:54:33.519Z,9.27
2023-05-25T18:57:03.124Z,9.73
2023-05-25T18:59:33.654Z,12.13
2023-05-25T19:02:05.444Z,10.98
2023-05-25T19:04:34.167Z,9.77
2023-05-25T19:07:02.911Z,7.63
2023-05-25T19:09:35.261Z,9.07
2023-05-25T19:12:04.949Z,10.80
2023-05-25T19:14:34.183Z,8.48
2023-05-25T19:17:04.917Z,12.13
2023-05-25T19:19:35.111Z,11.65
2023-05-25T19:22:03.713Z,11.55
2023-05-25T19:24:34.080Z,14.60
2023-05-25T19:27:03.069Z,12.68
2023-05-25T19:29:31.814Z,8.68
2023-05-25T19:32:01.177Z,9.70
2023-05-25T19:34:31.284Z,9.95
2023-05-25T19:37:10.970Z,10.30
2023-05-25T19:39:42.237Z,7.80
2023-05-25T19:42:12.399Z,9.85
2023-05-25T19:44:41.473Z,11.15
2023-05-25T19:47:11.616Z,8.90
2023-05-25T19:49:44.407Z,10.38
2023-05-25T19:52:14.234Z,10.68
2023-05-25T19:54:42.898Z,11.07
2023-05-25T19:57:11.454Z,8.48
2023-05-25T19:59:40.695Z,11.00
2023-05-25T20:02:12.127Z,9.85
2023-05-25T20:04:41.732Z,9.27
2023-05-25T20:07:13.878Z,17.80
2023-05-25T20:09:43.070Z,9.05
2023-05-25T20:12:11.511Z,9.23
2023-05-25T20:14:41.013Z,10.00
2023-05-25T20:17:11.430Z,10.40
2023-05-25T20:19:39.621Z,9.07
2023-05-25T20:22:08.706Z,12.38
2023-05-25T20:24:40.902Z,13.25
2023-05-25T20:27:11.538Z,10.02
2023-05-25T20:29:40.560Z,9.27
2023-05-25T20:32:10.027Z,15.00
2023-05-25T20:34:42.310Z,8.25
2023-05-25T20:37:11.424Z,9.25
2023-05-25T20:39:41.987Z,11.82
2023-05-25T20:42:10.635Z,13.02
2023-05-25T20:44:39.086Z,10.88
2023-05-25T20:47:08.471Z,10.13
2023-05-25T20:49:37.183Z,14.50
2023-05-25T20:52:07.861Z,10.88
2023-05-25T20:54:41.812Z,12.23
2023-05-25T20:57:15.138Z,7.07
2023-05-25T20:59:44.139Z,8.95
2023-05-25T21:02:12.783Z,9.20
2023-05-25T21:04:41.523Z,13.00
2023-05-25T21:07:10.927Z,10.55
2023-05-25T21:09:43.055Z,9.82
2023-05-25T21:12:14.446Z,8.25
2023-05-25T21:14:43.417Z,9.75
2023-05-25T21:17:12.732Z,12.88
2023-05-25T21:19:45.650Z,9.00
2023-05-25T21:22:16.528Z,12.38
2023-05-25T21:24:45.312Z,9.63
2023-05-25T21:27:22.230Z,10.60
2023-05-25T21:29:51.849Z,6.88
2023-05-25T21:32:19.912Z,10.50
2023-05-25T21:34:48.424Z,7.78
2023-05-25T21:37:19.337Z,13.45
2023-05-25T21:39:47.550Z,10.50
2023-05-25T21:42:25.758Z,11.10
2023-05-25T21:44:55.638Z,9.13
2023-05-25T21:47:23.717Z,11.25
2023-05-25T21:49:55.154Z,12.40
2023-05-25T21:52:27.827Z,11.02
2023-05-25T21:54:57.917Z,11.05
2023-05-25T21:57:27.483Z,11.52
2023-05-25T21:59:56.682Z,13.70
2023-05-25T22:02:25.039Z,13.90
2023-05-25T22:04:53.679Z,15.02
2023-05-25T22:07:22.975Z,13.30
2023-05-25T22:13:52.324Z,12.82
2023-05-25T22:16:24.619Z,9.60
2023-05-25T22:18:52.838Z,14.95
2023-05-25T22:21:21.744Z,12.07
2023-05-25T22:23:51.083Z,13.48
2023-05-25T22:26:27.828Z,14.40
2023-05-25T22:28:57.591Z,17.27
2023-05-25T22:31:28.685Z,15.35
2023-05-25T22:33:57.206Z,14.38
2023-05-25T22:36:34.755Z,12.27
2023-05-25T22:39:03.710Z,12.40
2023-05-25T22:41:35.271Z,18.85
2023-05-25T22:44:07.550Z,11.18
2023-05-25T22:46:36.016Z,9.68
2023-05-25T22:49:06.052Z,14.45
2023-05-25T22:51:38.682Z,9.70
2023-05-25T22:54:08.269Z,10.55
2023-05-25T22:56:38.316Z,15.43
2023-05-25T22:59:12.425Z,14.07
2023-05-25T23:01:42.134Z,11.32
2023-05-25T23:04:12.383Z,15.73
2023-05-25T23:06:41.767Z,11.98
2023-05-25T23:09:11.188Z,12.05
2023-05-25T23:11:41.180Z,8.85
2023-05-25T23:14:11.773Z,16.52
2023-05-25T23:16:41.495Z,12.88
2023-05-25T23:19:09.963Z,13.65
2023-05-25T23:21:38.728Z,12.52
2023-05-25T23:24:09.305Z,16.67
2023-05-25T23:26:37.951Z,11.63
2023-05-25T23:29:06.545Z,12.98
2023-05-25T23:31:37.374Z,13.35
2023-05-25T23:34:06.457Z,15.85
2023-05-25T23:36:41.099Z,16.20
2023-05-25T23:39:09.807Z,15.23
2023-05-25T23:41:42.208Z,13.95
2023-05-25T23:44:19.177Z,12.38
2023-05-25T23:46:49.233Z,14.70
2023-05-25T23:49:19.361Z,11.52
2023-05-25T23:51:48.531Z,13.02
2023-05-25T23:54:17.459Z,13.68
2023-05-25T23:56:46.844Z,13.38
2023-05-25T23:59:15.560Z,15.60
